Sunday, February 17, 2019, 3:07 PM EST
Back to Local

KMIV, Millville Municipal Airport

Location: Millville, NJ, United States Lat: 39.367
Local Time: 3:07 PM EST (20:07 GMT) Lon: -75.083
Time Zone: US/Eastern Elev: 85 ft

Show me the last for .
Show Decoded

2019-02-17 13:54 METAR KMIV 171854Z AUTO 00000KT 10SM FEW120 03/M05 A3013 RMK AO2 SLP203
                 T00331050 TSNO =
2019-02-17 12:54 METAR KMIV 171754Z AUTO VRB03KT 10SM CLR 03/M05 A3012 RMK AO2 SLP198 T00331050
                 10033 21033 58004 TSNO =
2019-02-17 11:54 METAR KMIV 171654Z AUTO 09004KT 10SM CLR 03/M05 A3016 RMK AO2 SLP211 T00331050
                 TSNO =
2019-02-17 10:54 METAR KMIV 171554Z AUTO 08006KT 10SM CLR 02/M06 A3009 RMK AO2 PRESFR SLP191
                 T00221061 TSNO =
2019-02-17 09:54 METAR KMIV 171454Z AUTO 09008KT 10SM CLR 01/M07 A3013 RMK AO2 SLP202 T00111067
                 50001 TSNO =
2019-02-17 08:54 METAR KMIV 171354Z AUTO 04008KT 10SM CLR M01/M09 A3016 RMK AO2 SLP213 T10111089
                 TSNO =
2019-02-17 07:54 METAR KMIV 171254Z AUTO 01007KT 10SM CLR M02/M08 A3015 RMK AO2 SLP211 T10221083
                 TSNO =
2019-02-17 06:54 METAR KMIV 171154Z AUTO 36005KT 10SM CLR M03/M09 A3013 RMK AO2 SLP202 T10331089
                 11011 21050 53023 TSNO =
2019-02-17 05:54 METAR KMIV 171054Z AUTO 02003KT 10SM CLR M05/M09 A3008 RMK AO2 SLP185 T10501089
                 TSNO =
2019-02-17 04:54 METAR KMIV 170954Z AUTO 35003KT 10SM CLR M03/M09 A3007 RMK AO2 SLP180 T10281089
                 TSNO =
2019-02-17 03:54 METAR KMIV 170854Z AUTO 36007KT 10SM CLR M02/M09 A3006 RMK AO2 SLP179 T10221089
                 50004 TSNO =
2019-02-17 02:54 METAR KMIV 170754Z AUTO 34005KT 10SM CLR M03/M09 A3007 RMK AO2 SLP181 T10281089
                 TSNO =
2019-02-17 01:54 METAR KMIV 170654Z AUTO 36007KT 10SM CLR M02/M08 A3005 RMK AO2 SLP177 T10171083
                 TSNO =
2019-02-17 00:54 METAR KMIV 170554Z AUTO 36004KT 10SM CLR M02/M08 A3005 RMK AO2 SLP175 T10171078
                 10033 21028 51016 TSNO =
2019-02-16 23:54 METAR KMIV 170454Z AUTO 35006KT 10SM CLR M01/M07 A3003 RMK AO2 SLP169 T10111072
                 401171028 TSNO =
2019-02-16 22:54 METAR KMIV 170354Z AUTO 34006KT 10SM CLR M01/M08 A3002 RMK AO2 SLP166 T10061078
                 TSNO =
2019-02-16 21:54 METAR KMIV 170254Z AUTO 35006KT 10SM CLR 00/M07 A3000 RMK AO2 SLP158 T00001072
                 53024 TSNO =
2019-02-16 20:54 METAR KMIV 170154Z AUTO 35005KT 10SM CLR 01/M07 A2998 RMK AO2 SLP150 T00061067
                 TSNO =
2019-02-16 19:54 METAR KMIV 170054Z AUTO 30003KT 10SM CLR M02/M07 A2995 RMK AO2 SLP141 T10171067
                 TSNO =
2019-02-16 18:54 METAR KMIV 162354Z AUTO 31004KT 10SM CLR 03/M07 A2993 RMK AO2 SLP135 T00331072
                 10078 20033 51024 TSNO =
2019-02-16 17:54 METAR KMIV 162254Z AUTO 33005KT 10SM CLR 04/M07 A2991 RMK AO2 SLP127 T00391067
                 TSNO =
2019-02-16 16:54 METAR KMIV 162154Z AUTO 32009KT 10SM CLR 07/M06 A2989 RMK AO2 SLP120 T00671061
                 TSNO =
2019-02-16 15:54 METAR KMIV 162054Z AUTO 35010G19KT 10SM CLR 07/M06 A2986 RMK AO2 SLP110
                 T00721061 58004 TSNO =

Support USWX by starting your Amazon purchase here.